sensor_id;sensor_type;location;lat;lon;timestamp;P1;durP1;ratioP1;P2;durP2;ratioP2
3591;SDS011;1810;48.720;9.094;2022-12-19T00:01:04;171.52;;;163.48;;
3591;SDS011;1810;48.720;9.094;2022-12-19T00:03:33;183.45;;;174.85;;
3591;SDS011;1810;48.720;9.094;2022-12-19T00:06:02;202.23;;;192.70;;
3591;SDS011;1810;48.720;9.094;2022-12-19T00:08:31;159.90;;;152.18;;
3591;SDS011;1810;48.720;9.094;2022-12-19T00:11:01;175.70;;;167.13;;
3591;SDS011;1810;48.720;9.094;2022-12-19T00:13:30;155.07;;;147.80;;
3591;SDS011;1810;48.720;9.094;2022-12-19T00:16:07;165.95;;;158.05;;
3591;SDS011;1810;48.720;9.094;2022-12-19T00:18:37;176.15;;;167.95;;
3591;SDS011;1810;48.720;9.094;2022-12-19T00:21:06;163.18;;;154.93;;
3591;SDS011;1810;48.720;9.094;2022-12-19T00:23:36;166.23;;;158.27;;
3591;SDS011;1810;48.720;9.094;2022-12-19T00:26:07;167.27;;;159.45;;
3591;SDS011;1810;48.720;9.094;2022-12-19T00:28:36;155.85;;;148.30;;
3591;SDS011;1810;48.720;9.094;2022-12-19T00:31:04;151.45;;;143.88;;
3591;SDS011;1810;48.720;9.094;2022-12-19T00:33:33;117.63;;;111.53;;
3591;SDS011;1810;48.720;9.094;2022-12-19T00:36:09;141.90;;;134.13;;
3591;SDS011;1810;48.720;9.094;2022-12-19T00:38:41;178.52;;;169.82;;
3591;SDS011;1810;48.720;9.094;2022-12-19T00:41:14;177.90;;;169.43;;
3591;SDS011;1810;48.720;9.094;2022-12-19T00:43:43;152.27;;;145.25;;
3591;SDS011;1810;48.720;9.094;2022-12-19T00:46:12;147.65;;;140.40;;
3591;SDS011;1810;48.720;9.094;2022-12-19T00:48:41;142.02;;;135.35;;
3591;SDS011;1810;48.720;9.094;2022-12-19T00:51:11;178.77;;;170.30;;
3591;SDS011;1810;48.720;9.094;2022-12-19T00:53:41;195.40;;;186.40;;
3591;SDS011;1810;48.720;9.094;2022-12-19T00:56:10;130.15;;;123.82;;
3591;SDS011;1810;48.720;9.094;2022-12-19T00:58:41;152.60;;;145.50;;
3591;SDS011;1810;48.720;9.094;2022-12-19T01:01:13;152.98;;;145.40;;
3591;SDS011;1810;48.720;9.094;2022-12-19T01:03:43;182.23;;;173.13;;
3591;SDS011;1810;48.720;9.094;2022-12-19T01:06:32;148.05;;;140.93;;
3591;SDS011;1810;48.720;9.094;2022-12-19T01:09:00;147.55;;;139.95;;
3591;SDS011;1810;48.720;9.094;2022-12-19T01:11:30;162.63;;;154.77;;
3591;SDS011;1810;48.720;9.094;2022-12-19T01:14:16;160.68;;;153.00;;
3591;SDS011;1810;48.720;9.094;2022-12-19T01:16:48;197.77;;;188.82;;
3591;SDS011;1810;48.720;9.094;2022-12-19T01:19:17;192.88;;;183.52;;
3591;SDS011;1810;48.720;9.094;2022-12-19T01:21:45;189.60;;;180.98;;
3591;SDS011;1810;48.720;9.094;2022-12-19T01:24:14;226.20;;;215.40;;
3591;SDS011;1810;48.720;9.094;2022-12-19T01:26:45;188.63;;;179.23;;
3591;SDS011;1810;48.720;9.094;2022-12-19T01:29:14;183.98;;;175.15;;
3591;SDS011;1810;48.720;9.094;2022-12-19T01:31:42;190.45;;;181.40;;
3591;SDS011;1810;48.720;9.094;2022-12-19T01:34:11;186.32;;;177.15;;
3591;SDS011;1810;48.720;9.094;2022-12-19T01:36:39;183.98;;;175.07;;
3591;SDS011;1810;48.720;9.094;2022-12-19T01:39:08;161.90;;;154.60;;
3591;SDS011;1810;48.720;9.094;2022-12-19T01:41:36;167.80;;;159.55;;
3591;SDS011;1810;48.720;9.094;2022-12-19T01:44:07;167.85;;;160.07;;
3591;SDS011;1810;48.720;9.094;2022-12-19T01:46:36;168.93;;;160.82;;
3591;SDS011;1810;48.720;9.094;2022-12-19T01:49:08;168.75;;;160.82;;
3591;SDS011;1810;48.720;9.094;2022-12-19T01:51:43;183.57;;;174.90;;
3591;SDS011;1810;48.720;9.094;2022-12-19T01:54:14;176.10;;;167.93;;
3591;SDS011;1810;48.720;9.094;2022-12-19T01:56:47;190.65;;;181.52;;
3591;SDS011;1810;48.720;9.094;2022-12-19T01:59:19;160.48;;;152.77;;
3591;SDS011;1810;48.720;9.094;2022-12-19T02:01:50;182.55;;;173.90;;
3591;SDS011;1810;48.720;9.094;2022-12-19T02:04:20;214.68;;;203.93;;
3591;SDS011;1810;48.720;9.094;2022-12-19T02:06:49;200.40;;;190.30;;
3591;SDS011;1810;48.720;9.094;2022-12-19T02:09:19;206.85;;;197.23;;
3591;SDS011;1810;48.720;9.094;2022-12-19T02:11:50;172.35;;;164.23;;
3591;SDS011;1810;48.720;9.094;2022-12-19T02:14:20;189.63;;;181.02;;
3591;SDS011;1810;48.720;9.094;2022-12-19T02:16:50;241.57;;;230.50;;
3591;SDS011;1810;48.720;9.094;2022-12-19T02:19:35;196.50;;;186.02;;
3591;SDS011;1810;48.720;9.094;2022-12-19T02:22:21;180.27;;;171.60;;
3591;SDS011;1810;48.720;9.094;2022-12-19T02:24:57;205.18;;;195.35;;
3591;SDS011;1810;48.720;9.094;2022-12-19T02:27:48;155.57;;;148.40;;
3591;SDS011;1810;48.720;9.094;2022-12-19T02:30:41;165.60;;;157.45;;
3591;SDS011;1810;48.720;9.094;2022-12-19T02:33:18;172.63;;;164.25;;
3591;SDS011;1810;48.720;9.094;2022-12-19T02:35:51;174.23;;;165.68;;
3591;SDS011;1810;48.720;9.094;2022-12-19T02:38:23;166.13;;;158.35;;
3591;SDS011;1810;48.720;9.094;2022-12-19T02:40:56;172.85;;;164.60;;
3591;SDS011;1810;48.720;9.094;2022-12-19T02:43:28;189.02;;;179.73;;
3591;SDS011;1810;48.720;9.094;2022-12-19T02:46:00;173.80;;;165.68;;
3591;SDS011;1810;48.720;9.094;2022-12-19T02:48:31;183.10;;;174.60;;
3591;SDS011;1810;48.720;9.094;2022-12-19T02:51:00;174.07;;;165.88;;
3591;SDS011;1810;48.720;9.094;2022-12-19T02:53:28;215.25;;;205.40;;
3591;SDS011;1810;48.720;9.094;2022-12-19T02:56:03;248.15;;;234.98;;
3591;SDS011;1810;48.720;9.094;2022-12-19T02:58:48;184.38;;;175.57;;
3591;SDS011;1810;48.720;9.094;2022-12-19T03:01:23;196.43;;;186.82;;
3591;SDS011;1810;48.720;9.094;2022-12-19T03:04:04;192.60;;;183.18;;
3591;SDS011;1810;48.720;9.094;2022-12-19T03:06:39;301.52;;;287.08;;
3591;SDS011;1810;48.720;9.094;2022-12-19T03:09:14;194.65;;;185.55;;
3591;SDS011;1810;48.720;9.094;2022-12-19T03:11:47;231.40;;;220.77;;
3591;SDS011;1810;48.720;9.094;2022-12-19T03:14:17;228.80;;;218.50;;
3591;SDS011;1810;48.720;9.094;2022-12-19T03:16:48;294.05;;;279.75;;
3591;SDS011;1810;48.720;9.094;2022-12-19T03:19:16;194.98;;;185.95;;
3591;SDS011;1810;48.720;9.094;2022-12-19T03:21:45;255.60;;;243.75;;
3591;SDS011;1810;48.720;9.094;2022-12-19T03:24:15;211.60;;;202.52;;
3591;SDS011;1810;48.720;9.094;2022-12-19T03:26:45;237.70;;;226.90;;
3591;SDS011;1810;48.720;9.094;2022-12-19T03:29:17;240.88;;;228.90;;
3591;SDS011;1810;48.720;9.094;2022-12-19T03:31:49;235.23;;;224.55;;
3591;SDS011;1810;48.720;9.094;2022-12-19T03:34:19;203.82;;;194.85;;
3591;SDS011;1810;48.720;9.094;2022-12-19T03:36:51;232.18;;;220.88;;
3591;SDS011;1810;48.720;9.094;2022-12-19T03:39:22;297.05;;;283.33;;
3591;SDS011;1810;48.720;9.094;2022-12-19T03:41:52;224.75;;;214.68;;
3591;SDS011;1810;48.720;9.094;2022-12-19T03:44:38;242.30;;;231.35;;
3591;SDS011;1810;48.720;9.094;2022-12-19T03:47:11;295.30;;;281.88;;
3591;SDS011;1810;48.720;9.094;2022-12-19T03:49:43;270.80;;;258.52;;
3591;SDS011;1810;48.720;9.094;2022-12-19T03:52:15;267.73;;;255.63;;
3591;SDS011;1810;48.720;9.094;2022-12-19T03:54:51;252.98;;;241.20;;
3591;SDS011;1810;48.720;9.094;2022-12-19T03:57:23;272.48;;;260.15;;
3591;SDS011;1810;48.720;9.094;2022-12-19T03:59:55;254.32;;;242.27;;
3591;SDS011;1810;48.720;9.094;2022-12-19T04:02:28;267.40;;;255.18;;
3591;SDS011;1810;48.720;9.094;2022-12-19T04:04:57;305.23;;;290.77;;
3591;SDS011;1810;48.720;9.094;2022-12-19T04:07:27;357.90;;;341.25;;
3591;SDS011;1810;48.720;9.094;2022-12-19T04:09:56;282.55;;;268.58;;
3591;SDS011;1810;48.720;9.094;2022-12-19T04:12:25;206.65;;;196.90;;
3591;SDS011;1810;48.720;9.094;2022-12-19T04:14:57;290.75;;;277.48;;
3591;SDS011;1810;48.720;9.094;2022-12-19T04:17:29;294.83;;;281.38;;
3591;SDS011;1810;48.720;9.094;2022-12-19T04:20:03;307.42;;;293.48;;
3591;SDS011;1810;48.720;9.094;2022-12-19T04:22:34;206.07;;;196.75;;
3591;SDS011;1810;48.720;9.094;2022-12-19T04:25:05;259.55;;;247.65;;
3591;SDS011;1810;48.720;9.094;2022-12-19T04:27:37;283.30;;;269.77;;
3591;SDS011;1810;48.720;9.094;2022-12-19T04:30:08;267.33;;;255.05;;
3591;SDS011;1810;48.720;9.094;2022-12-19T04:32:44;299.85;;;286.23;;
3591;SDS011;1810;48.720;9.094;2022-12-19T04:35:13;312.98;;;298.63;;
3591;SDS011;1810;48.720;9.094;2022-12-19T04:37:42;321.35;;;306.67;;
3591;SDS011;1810;48.720;9.094;2022-12-19T04:40:10;332.13;;;316.67;;
3591;SDS011;1810;48.720;9.094;2022-12-19T04:42:39;328.95;;;314.23;;
3591;SDS011;1810;48.720;9.094;2022-12-19T04:45:08;330.42;;;315.38;;
3591;SDS011;1810;48.720;9.094;2022-12-19T04:47:37;261.27;;;249.25;;
3591;SDS011;1810;48.720;9.094;2022-12-19T04:50:07;358.00;;;341.52;;
3591;SDS011;1810;48.720;9.094;2022-12-19T04:52:36;316.20;;;301.92;;
3591;SDS011;1810;48.720;9.094;2022-12-19T04:55:05;335.23;;;319.85;;
3591;SDS011;1810;48.720;9.094;2022-12-19T04:57:34;321.55;;;306.73;;
3591;SDS011;1810;48.720;9.094;2022-12-19T05:00:03;352.05;;;335.90;;
3591;SDS011;1810;48.720;9.094;2022-12-19T05:02:33;365.85;;;348.60;;
3591;SDS011;1810;48.720;9.094;2022-12-19T05:05:02;374.65;;;357.52;;
3591;SDS011;1810;48.720;9.094;2022-12-19T05:07:32;358.73;;;341.85;;
3591;SDS011;1810;48.720;9.094;2022-12-19T05:10:01;353.27;;;337.02;;
3591;SDS011;1810;48.720;9.094;2022-12-19T05:12:30;349.52;;;332.73;;
3591;SDS011;1810;48.720;9.094;2022-12-19T05:14:58;364.25;;;347.05;;
3591;SDS011;1810;48.720;9.094;2022-12-19T05:17:27;358.00;;;341.42;;
3591;SDS011;1810;48.720;9.094;2022-12-19T05:19:55;365.95;;;348.98;;
3591;SDS011;1810;48.720;9.094;2022-12-19T05:22:27;363.25;;;346.23;;
3591;SDS011;1810;48.720;9.094;2022-12-19T05:24:56;365.98;;;348.92;;
3591;SDS011;1810;48.720;9.094;2022-12-19T05:27:25;378.75;;;360.73;;
3591;SDS011;1810;48.720;9.094;2022-12-19T05:29:53;364.33;;;347.25;;
3591;SDS011;1810;48.720;9.094;2022-12-19T05:32:21;380.38;;;362.55;;
3591;SDS011;1810;48.720;9.094;2022-12-19T05:34:50;358.73;;;342.20;;
3591;SDS011;1810;48.720;9.094;2022-12-19T05:37:18;371.08;;;353.83;;
3591;SDS011;1810;48.720;9.094;2022-12-19T05:39:47;379.20;;;361.52;;
3591;SDS011;1810;48.720;9.094;2022-12-19T05:42:16;357.60;;;340.63;;
3591;SDS011;1810;48.720;9.094;2022-12-19T05:44:45;367.27;;;350.08;;
3591;SDS011;1810;48.720;9.094;2022-12-19T05:47:13;396.58;;;377.73;;
3591;SDS011;1810;48.720;9.094;2022-12-19T05:49:41;365.63;;;348.40;;
3591;SDS011;1810;48.720;9.094;2022-12-19T05:52:10;359.30;;;342.88;;
3591;SDS011;1810;48.720;9.094;2022-12-19T05:54:38;376.70;;;359.33;;
3591;SDS011;1810;48.720;9.094;2022-12-19T05:57:07;378.15;;;360.55;;
3591;SDS011;1810;48.720;9.094;2022-12-19T05:59:36;386.30;;;368.10;;
3591;SDS011;1810;48.720;9.094;2022-12-19T06:02:05;373.98;;;356.65;;
3591;SDS011;1810;48.720;9.094;2022-12-19T06:04:36;329.52;;;314.20;;
3591;SDS011;1810;48.720;9.094;2022-12-19T06:07:05;502.60;;;477.35;;
3591;SDS011;1810;48.720;9.094;2022-12-19T06:12:52;454.83;;;432.40;;
3591;SDS011;1810;48.720;9.094;2022-12-19T06:15:31;425.30;;;405.17;;
3591;SDS011;1810;48.720;9.094;2022-12-19T06:18:09;427.75;;;407.13;;
3591;SDS011;1810;48.720;9.094;2022-12-19T06:20:56;448.98;;;427.48;;
3591;SDS011;1810;48.720;9.094;2022-12-19T06:23:31;428.75;;;408.42;;
3591;SDS011;1810;48.720;9.094;2022-12-19T06:26:05;487.08;;;463.35;;
3591;SDS011;1810;48.720;9.094;2022-12-19T06:55:41;421.75;;;401.55;;
3591;SDS011;1810;48.720;9.094;2022-12-19T06:58:12;448.67;;;427.15;;
3591;SDS011;1810;48.720;9.094;2022-12-19T07:00:49;572.92;;;540.78;;
3591;SDS011;1810;48.720;9.094;2022-12-19T07:03:19;461.13;;;438.40;;
3591;SDS011;1810;48.720;9.094;2022-12-19T07:05:49;438.33;;;416.95;;
3591;SDS011;1810;48.720;9.094;2022-12-19T07:08:18;440.20;;;418.73;;
3591;SDS011;1810;48.720;9.094;2022-12-19T07:10:50;433.13;;;411.92;;
3591;SDS011;1810;48.720;9.094;2022-12-19T07:13:23;420.88;;;400.98;;
3591;SDS011;1810;48.720;9.094;2022-12-19T07:15:52;442.65;;;421.13;;
3591;SDS011;1810;48.720;9.094;2022-12-19T07:18:31;427.27;;;406.85;;
3591;SDS011;1810;48.720;9.094;2022-12-19T07:21:02;485.15;;;460.75;;
3591;SDS011;1810;48.720;9.094;2022-12-19T07:23:32;416.20;;;395.98;;
3591;SDS011;1810;48.720;9.094;2022-12-19T07:28:49;433.88;;;413.25;;
3591;SDS011;1810;48.720;9.094;2022-12-19T07:31:18;427.80;;;407.15;;
3591;SDS011;1810;48.720;9.094;2022-12-19T07:33:47;399.50;;;380.80;;
3591;SDS011;1810;48.720;9.094;2022-12-19T07:36:16;487.40;;;462.77;;
3591;SDS011;1810;48.720;9.094;2022-12-19T07:38:44;407.67;;;388.63;;
3591;SDS011;1810;48.720;9.094;2022-12-19T07:41:12;469.20;;;445.60;;
3591;SDS011;1810;48.720;9.094;2022-12-19T07:43:43;405.75;;;387.10;;
3591;SDS011;1810;48.720;9.094;2022-12-19T07:46:12;419.48;;;399.17;;
3591;SDS011;1810;48.720;9.094;2022-12-19T07:48:59;431.30;;;410.55;;
3591;SDS011;1810;48.720;9.094;2022-12-19T07:51:50;435.00;;;414.23;;
3591;SDS011;1810;48.720;9.094;2022-12-19T07:54:25;425.25;;;404.80;;
3591;SDS011;1810;48.720;9.094;2022-12-19T07:56:55;411.38;;;392.40;;
3591;SDS011;1810;48.720;9.094;2022-12-19T07:59:25;431.10;;;410.10;;
3591;SDS011;1810;48.720;9.094;2022-12-19T08:02:00;482.08;;;458.10;;
3591;SDS011;1810;48.720;9.094;2022-12-19T08:04:29;519.85;;;492.92;;
3591;SDS011;1810;48.720;9.094;2022-12-19T08:06:58;417.45;;;398.15;;
3591;SDS011;1810;48.720;9.094;2022-12-19T08:09:27;417.35;;;397.27;;
3591;SDS011;1810;48.720;9.094;2022-12-19T08:11:56;409.58;;;389.60;;
3591;SDS011;1810;48.720;9.094;2022-12-19T08:14:26;427.35;;;407.10;;
3591;SDS011;1810;48.720;9.094;2022-12-19T08:16:55;429.92;;;409.35;;
3591;SDS011;1810;48.720;9.094;2022-12-19T08:19:43;420.98;;;401.10;;
3591;SDS011;1810;48.720;9.094;2022-12-19T08:22:12;487.05;;;462.48;;
3591;SDS011;1810;48.720;9.094;2022-12-19T08:24:41;429.25;;;408.92;;
3591;SDS011;1810;48.720;9.094;2022-12-19T08:27:09;474.70;;;451.73;;
3591;SDS011;1810;48.720;9.094;2022-12-19T08:29:39;427.85;;;407.38;;
3591;SDS011;1810;48.720;9.094;2022-12-19T08:32:08;397.48;;;378.65;;
3591;SDS011;1810;48.720;9.094;2022-12-19T08:34:45;389.33;;;371.52;;
3591;SDS011;1810;48.720;9.094;2022-12-19T08:37:14;414.52;;;394.75;;
3591;SDS011;1810;48.720;9.094;2022-12-19T08:39:43;439.27;;;418.75;;
3591;SDS011;1810;48.720;9.094;2022-12-19T08:42:12;407.10;;;388.30;;
3591;SDS011;1810;48.720;9.094;2022-12-19T08:44:42;410.52;;;391.70;;
3591;SDS011;1810;48.720;9.094;2022-12-19T08:47:11;421.80;;;401.67;;
3591;SDS011;1810;48.720;9.094;2022-12-19T08:49:40;487.77;;;463.95;;
3591;SDS011;1810;48.720;9.094;2022-12-19T08:52:09;389.27;;;371.13;;
3591;SDS011;1810;48.720;9.094;2022-12-19T08:54:37;374.75;;;357.60;;
3591;SDS011;1810;48.720;9.094;2022-12-19T08:57:06;466.05;;;443.38;;
3591;SDS011;1810;48.720;9.094;2022-12-19T08:59:35;436.33;;;415.65;;
3591;SDS011;1810;48.720;9.094;2022-12-19T09:02:08;381.70;;;363.48;;
3591;SDS011;1810;48.720;9.094;2022-12-19T09:04:37;266.88;;;255.40;;
3591;SDS011;1810;48.720;9.094;2022-12-19T09:07:25;271.55;;;259.75;;
3591;SDS011;1810;48.720;9.094;2022-12-19T09:09:56;345.58;;;329.83;;
3591;SDS011;1810;48.720;9.094;2022-12-19T09:12:27;391.08;;;372.95;;
3591;SDS011;1810;48.720;9.094;2022-12-19T09:14:56;404.58;;;385.52;;
3591;SDS011;1810;48.720;9.094;2022-12-19T09:17:27;401.60;;;383.02;;
3591;SDS011;1810;48.720;9.094;2022-12-19T09:19:56;404.88;;;385.92;;
3591;SDS011;1810;48.720;9.094;2022-12-19T09:22:25;330.00;;;314.75;;
3591;SDS011;1810;48.720;9.094;2022-12-19T09:24:54;382.08;;;364.33;;
3591;SDS011;1810;48.720;9.094;2022-12-19T09:27:28;433.15;;;412.40;;
3591;SDS011;1810;48.720;9.094;2022-12-19T09:30:17;361.02;;;344.30;;
3591;SDS011;1810;48.720;9.094;2022-12-19T09:32:47;307.23;;;292.98;;
3591;SDS011;1810;48.720;9.094;2022-12-19T09:35:16;384.58;;;365.23;;
3591;SDS011;1810;48.720;9.094;2022-12-19T09:37:44;450.92;;;428.58;;
3591;SDS011;1810;48.720;9.094;2022-12-19T09:40:14;332.75;;;316.70;;
3591;SDS011;1810;48.720;9.094;2022-12-19T09:42:56;318.35;;;303.80;;
3591;SDS011;1810;48.720;9.094;2022-12-19T09:48:22;355.92;;;339.85;;
3591;SDS011;1810;48.720;9.094;2022-12-19T09:50:53;323.42;;;308.92;;
3591;SDS011;1810;48.720;9.094;2022-12-19T09:53:36;328.15;;;313.40;;
3591;SDS011;1810;48.720;9.094;2022-12-19T09:56:09;298.02;;;284.77;;
3591;SDS011;1810;48.720;9.094;2022-12-19T09:58:42;477.00;;;453.10;;
3591;SDS011;1810;48.720;9.094;2022-12-19T10:01:16;404.70;;;383.83;;
3591;SDS011;1810;48.720;9.094;2022-12-19T10:03:49;268.98;;;257.38;;
3591;SDS011;1810;48.720;9.094;2022-12-19T10:06:22;268.35;;;256.70;;
3591;SDS011;1810;48.720;9.094;2022-12-19T10:09:11;335.92;;;320.67;;
3591;SDS011;1810;48.720;9.094;2022-12-19T10:12:08;224.98;;;215.75;;
3591;SDS011;1810;48.720;9.094;2022-12-19T10:15:07;261.83;;;250.73;;
3591;SDS011;1810;48.720;9.094;2022-12-19T10:17:51;204.50;;;195.98;;
3591;SDS011;1810;48.720;9.094;2022-12-19T10:20:31;285.38;;;271.90;;
3591;SDS011;1810;48.720;9.094;2022-12-19T10:23:05;332.75;;;317.05;;
3591;SDS011;1810;48.720;9.094;2022-12-19T10:25:45;188.52;;;180.40;;
3591;SDS011;1810;48.720;9.094;2022-12-19T10:28:23;159.85;;;152.98;;
3591;SDS011;1810;48.720;9.094;2022-12-19T10:31:08;158.15;;;151.48;;
3591;SDS011;1810;48.720;9.094;2022-12-19T10:33:48;196.27;;;188.23;;
3591;SDS011;1810;48.720;9.094;2022-12-19T10:36:22;207.57;;;199.00;;
3591;SDS011;1810;48.720;9.094;2022-12-19T10:39:11;200.88;;;192.63;;
3591;SDS011;1810;48.720;9.094;2022-12-19T10:41:47;214.82;;;205.88;;
3591;SDS011;1810;48.720;9.094;2022-12-19T10:44:19;194.55;;;186.30;;
3591;SDS011;1810;48.720;9.094;2022-12-19T10:46:50;374.67;;;353.77;;
3591;SDS011;1810;48.720;9.094;2022-12-19T10:49:20;189.77;;;181.93;;
3591;SDS011;1810;48.720;9.094;2022-12-19T10:51:55;185.77;;;178.25;;
3591;SDS011;1810;48.720;9.094;2022-12-19T10:54:25;195.32;;;187.43;;
3591;SDS011;1810;48.720;9.094;2022-12-19T10:57:15;197.25;;;189.18;;
3591;SDS011;1810;48.720;9.094;2022-12-19T10:59:52;352.60;;;336.15;;
3591;SDS011;1810;48.720;9.094;2022-12-19T11:02:26;186.02;;;178.40;;
3591;SDS011;1810;48.720;9.094;2022-12-19T11:05:00;189.65;;;181.65;;
3591;SDS011;1810;48.720;9.094;2022-12-19T11:07:31;196.82;;;188.73;;
3591;SDS011;1810;48.720;9.094;2022-12-19T11:10:12;261.55;;;250.27;;
3591;SDS011;1810;48.720;9.094;2022-12-19T11:13:38;174.93;;;167.48;;
3591;SDS011;1810;48.720;9.094;2022-12-19T11:16:32;184.07;;;176.52;;
3591;SDS011;1810;48.720;9.094;2022-12-19T11:22:29;222.05;;;212.45;;
3591;SDS011;1810;48.720;9.094;2022-12-19T11:25:22;204.20;;;195.60;;
3591;SDS011;1810;48.720;9.094;2022-12-19T11:28:20;202.68;;;194.35;;
3591;SDS011;1810;48.720;9.094;2022-12-19T11:31:14;183.43;;;175.82;;
3591;SDS011;1810;48.720;9.094;2022-12-19T11:34:14;166.10;;;159.18;;
3591;SDS011;1810;48.720;9.094;2022-12-19T11:36:47;192.23;;;184.18;;
3591;SDS011;1810;48.720;9.094;2022-12-19T11:39:20;193.75;;;185.52;;
3591;SDS011;1810;48.720;9.094;2022-12-19T11:41:54;195.07;;;186.90;;
3591;SDS011;1810;48.720;9.094;2022-12-19T11:44:26;185.40;;;177.80;;
3591;SDS011;1810;48.720;9.094;2022-12-19T11:47:02;208.55;;;199.55;;
3591;SDS011;1810;48.720;9.094;2022-12-19T11:49:34;233.45;;;223.73;;
3591;SDS011;1810;48.720;9.094;2022-12-19T11:52:09;200.95;;;192.40;;
3591;SDS011;1810;48.720;9.094;2022-12-19T11:55:06;204.75;;;195.98;;
3591;SDS011;1810;48.720;9.094;2022-12-19T11:57:43;190.82;;;182.82;;
3591;SDS011;1810;48.720;9.094;2022-12-19T12:00:13;199.05;;;190.80;;
3591;SDS011;1810;48.720;9.094;2022-12-19T12:03:03;177.80;;;170.27;;
3591;SDS011;1810;48.720;9.094;2022-12-19T12:05:45;217.15;;;207.88;;
3591;SDS011;1810;48.720;9.094;2022-12-19T12:08:33;175.18;;;167.73;;
3591;SDS011;1810;48.720;9.094;2022-12-19T12:11:39;180.57;;;173.02;;
3591;SDS011;1810;48.720;9.094;2022-12-19T12:14:31;204.25;;;195.73;;
3591;SDS011;1810;48.720;9.094;2022-12-19T12:17:29;378.27;;;359.15;;
3591;SDS011;1810;48.720;9.094;2022-12-19T12:20:29;218.95;;;210.00;;
3591;SDS011;1810;48.720;9.094;2022-12-19T12:23:23;212.52;;;203.75;;
3591;SDS011;1810;48.720;9.094;2022-12-19T12:26:16;209.93;;;201.40;;
3591;SDS011;1810;48.720;9.094;2022-12-19T12:29:13;212.95;;;204.32;;
3591;SDS011;1810;48.720;9.094;2022-12-19T12:32:09;273.55;;;261.95;;
3591;SDS011;1810;48.720;9.094;2022-12-19T12:35:05;244.73;;;234.45;;
3591;SDS011;1810;48.720;9.094;2022-12-19T12:38:15;221.73;;;212.57;;
3591;SDS011;1810;48.720;9.094;2022-12-19T12:41:03;209.18;;;199.98;;
3591;SDS011;1810;48.720;9.094;2022-12-19T12:44:16;199.63;;;191.23;;
3591;SDS011;1810;48.720;9.094;2022-12-19T12:46:59;210.33;;;201.27;;
3591;SDS011;1810;48.720;9.094;2022-12-19T12:49:43;224.75;;;215.38;;
3591;SDS011;1810;48.720;9.094;2022-12-19T12:52:14;201.93;;;193.43;;
3591;SDS011;1810;48.720;9.094;2022-12-19T12:54:45;341.27;;;325.33;;
3591;SDS011;1810;48.720;9.094;2022-12-19T12:57:32;237.80;;;227.77;;
3591;SDS011;1810;48.720;9.094;2022-12-19T13:02:49;324.45;;;308.88;;
3591;SDS011;1810;48.720;9.094;2022-12-19T13:05:23;240.23;;;230.40;;
3591;SDS011;1810;48.720;9.094;2022-12-19T13:11:06;277.02;;;264.85;;
3591;SDS011;1810;48.720;9.094;2022-12-19T13:14:00;180.00;;;172.77;;
3591;SDS011;1810;48.720;9.094;2022-12-19T13:16:49;196.02;;;187.75;;
3591;SDS011;1810;48.720;9.094;2022-12-19T13:19:20;215.98;;;207.15;;
3591;SDS011;1810;48.720;9.094;2022-12-19T13:22:14;213.18;;;204.40;;
3591;SDS011;1810;48.720;9.094;2022-12-19T13:24:45;211.60;;;202.85;;
3591;SDS011;1810;48.720;9.094;2022-12-19T13:27:32;216.38;;;207.55;;
3591;SDS011;1810;48.720;9.094;2022-12-19T13:30:15;201.02;;;192.82;;
3591;SDS011;1810;48.720;9.094;2022-12-19T13:35:34;247.50;;;236.93;;
3591;SDS011;1810;48.720;9.094;2022-12-19T13:38:24;249.98;;;239.57;;
3591;SDS011;1810;48.720;9.094;2022-12-19T13:41:24;237.88;;;228.02;;
3591;SDS011;1810;48.720;9.094;2022-12-19T13:44:12;251.10;;;240.60;;
3591;SDS011;1810;48.720;9.094;2022-12-19T13:46:45;283.10;;;271.08;;
3591;SDS011;1810;48.720;9.094;2022-12-19T13:49:16;302.10;;;289.00;;
3591;SDS011;1810;48.720;9.094;2022-12-19T13:51:47;314.13;;;300.33;;
3591;SDS011;1810;48.720;9.094;2022-12-19T13:54:21;284.98;;;272.33;;
3591;SDS011;1810;48.720;9.094;2022-12-19T13:56:51;286.50;;;273.83;;
3591;SDS011;1810;48.720;9.094;2022-12-19T13:59:21;320.42;;;306.05;;
3591;SDS011;1810;48.720;9.094;2022-12-19T14:01:53;336.85;;;321.73;;
3591;SDS011;1810;48.720;9.094;2022-12-19T14:04:27;331.45;;;316.25;;
3591;SDS011;1810;48.720;9.094;2022-12-19T14:06:57;346.83;;;331.15;;
3591;SDS011;1810;48.720;9.094;2022-12-19T14:09:29;331.40;;;316.10;;
3591;SDS011;1810;48.720;9.094;2022-12-19T14:12:20;348.38;;;332.25;;
3591;SDS011;1810;48.720;9.094;2022-12-19T14:15:29;460.85;;;437.65;;
3591;SDS011;1810;48.720;9.094;2022-12-19T14:17:59;326.60;;;312.27;;
3591;SDS011;1810;48.720;9.094;2022-12-19T14:20:52;581.80;;;545.83;;
3591;SDS011;1810;48.720;9.094;2022-12-19T14:24:14;325.23;;;310.52;;
3591;SDS011;1810;48.720;9.094;2022-12-19T14:26:43;453.00;;;429.92;;
3591;SDS011;1810;48.720;9.094;2022-12-19T14:29:34;344.63;;;329.23;;
3591;SDS011;1810;48.720;9.094;2022-12-19T14:32:25;350.13;;;334.38;;
3591;SDS011;1810;48.720;9.094;2022-12-19T14:35:14;359.45;;;342.83;;
3591;SDS011;1810;48.720;9.094;2022-12-19T14:38:07;316.60;;;302.42;;
3591;SDS011;1810;48.720;9.094;2022-12-19T14:40:59;416.42;;;396.27;;
3591;SDS011;1810;48.720;9.094;2022-12-19T14:43:34;351.77;;;335.80;;
3591;SDS011;1810;48.720;9.094;2022-12-19T14:46:25;356.05;;;340.02;;
3591;SDS011;1810;48.720;9.094;2022-12-19T14:49:25;418.15;;;398.08;;
3591;SDS011;1810;48.720;9.094;2022-12-19T14:55:41;407.98;;;388.25;;
3591;SDS011;1810;48.720;9.094;2022-12-19T14:58:32;481.33;;;456.27;;
3591;SDS011;1810;48.720;9.094;2022-12-19T15:01:22;580.97;;;546.33;;
3591;SDS011;1810;48.720;9.094;2022-12-19T15:03:53;336.50;;;320.50;;
3591;SDS011;1810;48.720;9.094;2022-12-19T15:06:44;344.13;;;328.40;;
3591;SDS011;1810;48.720;9.094;2022-12-19T15:09:34;356.02;;;339.95;;
3591;SDS011;1810;48.720;9.094;2022-12-19T15:12:30;424.25;;;403.83;;
3591;SDS011;1810;48.720;9.094;2022-12-19T15:15:38;324.38;;;310.10;;
3591;SDS011;1810;48.720;9.094;2022-12-19T15:18:19;315.33;;;301.55;;
3591;SDS011;1810;48.720;9.094;2022-12-19T15:20:50;373.23;;;355.95;;
3591;SDS011;1810;48.720;9.094;2022-12-19T15:23:21;353.67;;;337.65;;
3591;SDS011;1810;48.720;9.094;2022-12-19T15:25:51;337.98;;;322.85;;
3591;SDS011;1810;48.720;9.094;2022-12-19T15:28:33;333.30;;;318.65;;
3591;SDS011;1810;48.720;9.094;2022-12-19T15:31:05;351.05;;;335.27;;
3591;SDS011;1810;48.720;9.094;2022-12-19T15:33:40;334.65;;;319.90;;
3591;SDS011;1810;48.720;9.094;2022-12-19T15:36:29;403.23;;;383.45;;
3591;SDS011;1810;48.720;9.094;2022-12-19T15:38:58;376.75;;;359.30;;
3591;SDS011;1810;48.720;9.094;2022-12-19T15:41:26;403.77;;;384.25;;
3591;SDS011;1810;48.720;9.094;2022-12-19T15:43:56;372.13;;;355.15;;
3591;SDS011;1810;48.720;9.094;2022-12-19T15:46:30;398.73;;;379.90;;
3591;SDS011;1810;48.720;9.094;2022-12-19T15:49:01;389.05;;;371.17;;
3591;SDS011;1810;48.720;9.094;2022-12-19T15:51:29;403.40;;;383.90;;
3591;SDS011;1810;48.720;9.094;2022-12-19T15:54:12;561.58;;;529.90;;
3591;SDS011;1810;48.720;9.094;2022-12-19T15:57:01;449.60;;;427.40;;
3591;SDS011;1810;48.720;9.094;2022-12-19T15:59:40;388.33;;;370.48;;
3591;SDS011;1810;48.720;9.094;2022-12-19T16:02:14;401.05;;;382.38;;